createdAt,value
2023-03-16T00:02:43.597Z,4.32
2023-03-16T00:07:43.320Z,3.30
2023-03-16T00:12:44.013Z,3.17
2023-03-16T00:17:48.604Z,3.28
2023-03-16T00:22:47.435Z,3.28
2023-03-16T00:27:46.297Z,3.17
2023-03-16T00:32:45.179Z,3.08
2023-03-16T00:37:44.376Z,3.25
2023-03-16T00:42:44.715Z,3.33
2023-03-16T00:47:43.512Z,2.58
2023-03-16T00:52:43.057Z,2.88
2023-03-16T00:57:42.126Z,3.30
2023-03-16T01:02:41.423Z,3.70
2023-03-16T01:07:41.445Z,3.20
2023-03-16T01:12:40.179Z,4.40
2023-03-16T01:17:39.221Z,3.88
2023-03-16T01:22:37.968Z,4.20
2023-03-16T01:27:36.971Z,4.57
2023-03-16T01:32:35.930Z,4.07
2023-03-16T01:37:35.207Z,2.95
2023-03-16T01:43:02.819Z,3.63
2023-03-16T01:48:05.370Z,3.63
2023-03-16T01:53:04.561Z,3.72
2023-03-16T01:58:04.095Z,3.33
2023-03-16T02:03:13.920Z,3.45
2023-03-16T02:08:23.113Z,3.20
2023-03-16T02:13:26.731Z,3.28
2023-03-16T02:18:26.698Z,3.50
2023-03-16T02:23:26.768Z,3.92
2023-03-16T02:28:30.110Z,3.17
2023-03-16T02:33:31.888Z,3.33
2023-03-16T02:38:31.692Z,3.47
2023-03-16T02:43:35.077Z,4.40
2023-03-16T02:48:46.833Z,3.75
2023-03-16T02:53:45.883Z,4.18
2023-03-16T02:58:46.888Z,4.13
2023-03-16T03:03:50.090Z,4.85
2023-03-16T03:08:49.068Z,3.92
2023-03-16T03:13:48.109Z,4.60
2023-03-16T03:18:52.883Z,4.20
2023-03-16T03:23:52.761Z,3.75
2023-03-16T03:28:52.811Z,3.97
2023-03-16T03:33:53.713Z,3.47
2023-03-16T03:38:54.899Z,4.22
2023-03-16T03:43:54.345Z,4.75
2023-03-16T03:48:53.241Z,4.07
2023-03-16T03:53:52.090Z,4.20
2023-03-16T03:59:09.799Z,3.95
2023-03-16T04:04:46.875Z,3.85
2023-03-16T04:09:46.796Z,4.00
2023-03-16T04:14:58.684Z,4.55
2023-03-16T04:20:02.386Z,4.35
2023-03-16T04:25:04.141Z,3.70
2023-03-16T04:30:13.949Z,3.50
2023-03-16T04:35:18.600Z,4.22
2023-03-16T04:40:22.138Z,4.80
2023-03-16T04:45:28.940Z,3.85
2023-03-16T04:50:29.603Z,4.88
2023-03-16T04:55:28.770Z,3.92
2023-03-16T05:00:29.352Z,3.97
2023-03-16T05:05:35.356Z,3.78
2023-03-16T05:10:35.289Z,5.00
2023-03-16T05:15:34.714Z,4.30
2023-03-16T05:21:03.226Z,4.60
2023-03-16T05:26:13.589Z,7.47
2023-03-16T05:31:13.394Z,3.55
2023-03-16T05:36:20.469Z,3.65
2023-03-16T05:41:23.887Z,3.65
2023-03-16T05:46:32.054Z,3.47
2023-03-16T05:51:33.142Z,3.90
2023-03-16T05:56:34.150Z,4.53
2023-03-16T06:01:36.222Z,4.07
2023-03-16T06:06:36.645Z,3.50
2023-03-16T06:11:51.605Z,3.85
2023-03-16T06:16:51.980Z,3.55
2023-03-16T06:21:51.848Z,3.65
2023-03-16T06:26:50.903Z,3.47
2023-03-16T06:31:52.882Z,3.45
2023-03-16T06:36:53.091Z,4.07
2023-03-16T06:41:52.330Z,3.70
2023-03-16T06:46:52.564Z,3.08
2023-03-16T06:51:54.230Z,3.25
2023-03-16T06:56:55.808Z,3.40
2023-03-16T07:01:55.221Z,3.33
2023-03-16T07:06:54.352Z,3.95
2023-03-16T07:11:53.830Z,3.15
2023-03-16T07:16:53.266Z,3.20
2023-03-16T07:21:54.415Z,3.78
2023-03-16T07:26:54.710Z,4.50
2023-03-16T07:31:59.448Z,4.05
2023-03-16T07:37:08.373Z,3.55
2023-03-16T07:42:08.388Z,3.92
2023-03-16T07:47:20.177Z,4.30
2023-03-16T07:52:19.364Z,4.43
2023-03-16T07:57:19.611Z,3.45
2023-03-16T08:02:21.046Z,3.25
2023-03-16T08:07:20.945Z,3.85
2023-03-16T08:12:25.289Z,3.53
2023-03-16T08:17:24.183Z,4.32
2023-03-16T08:22:24.395Z,4.45
2023-03-16T08:27:23.846Z,3.30
2023-03-16T08:32:28.964Z,3.42
2023-03-16T08:37:28.772Z,3.13
2023-03-16T08:42:30.044Z,3.50
2023-03-16T08:47:33.222Z,3.65
2023-03-16T08:52:33.867Z,3.00
2023-03-16T08:57:33.958Z,3.17
2023-03-16T09:02:33.348Z,3.35
2023-03-16T09:07:35.662Z,2.90
2023-03-16T09:12:38.330Z,2.78
2023-03-16T09:17:37.195Z,1.92
2023-03-16T09:22:37.953Z,2.25
2023-03-16T09:27:37.409Z,2.40
2023-03-16T09:32:37.568Z,2.22
2023-03-16T09:37:45.031Z,2.15
2023-03-16T09:43:00.524Z,2.22
2023-03-16T09:48:03.723Z,2.10
2023-03-16T09:53:24.914Z,1.50
2023-03-16T09:58:23.994Z,1.60
2023-03-16T10:03:57.637Z,1.70
2023-03-16T10:09:15.406Z,1.23
2023-03-16T10:14:33.010Z,1.27
2023-03-16T10:20:09.242Z,1.13
2023-03-16T10:25:21.861Z,1.30
2023-03-16T10:30:32.156Z,1.15
2023-03-16T10:35:49.175Z,1.13
2023-03-16T10:40:47.961Z,1.02
2023-03-16T10:45:47.295Z,1.30
2023-03-16T10:50:57.232Z,1.10
2023-03-16T10:56:02.265Z,1.00
2023-03-16T11:01:01.694Z,0.77
2023-03-16T11:06:07.147Z,0.60
2023-03-16T11:11:31.127Z,0.85
2023-03-16T11:16:55.066Z,0.60
2023-03-16T11:22:01.444Z,0.77
2023-03-16T11:27:04.689Z,0.70
2023-03-16T11:37:13.251Z,0.50
2023-03-16T11:42:43.526Z,0.80
2023-03-16T11:47:54.297Z,1.25
2023-03-16T11:53:04.076Z,0.70
2023-03-16T11:58:02.822Z,0.70
2023-03-16T12:03:22.981Z,0.85
2023-03-16T12:08:29.227Z,0.95
2023-03-16T12:14:06.546Z,1.33
2023-03-16T12:19:13.136Z,1.10
2023-03-16T12:24:16.867Z,1.00
2023-03-16T12:29:42.821Z,0.82
2023-03-16T12:34:51.630Z,0.60
2023-03-16T12:40:12.233Z,1.02
2023-03-16T12:45:48.292Z,1.48
2023-03-16T12:50:57.606Z,1.33
2023-03-16T12:56:08.803Z,1.50
2023-03-16T13:06:18.168Z,1.02
2023-03-16T13:11:17.713Z,1.27
2023-03-16T13:16:33.305Z,1.55
2023-03-16T13:21:41.404Z,1.80
2023-03-16T13:26:49.496Z,1.40
2023-03-16T13:31:49.091Z,1.67
2023-03-16T13:36:53.312Z,1.35
2023-03-16T13:42:14.410Z,1.40
2023-03-16T13:47:19.998Z,1.25
2023-03-16T13:52:30.075Z,1.55
2023-03-16T13:57:32.435Z,1.60
2023-03-16T14:02:31.731Z,1.45
2023-03-16T14:07:38.810Z,1.08
2023-03-16T14:12:38.165Z,1.70
2023-03-16T14:17:37.529Z,1.30
2023-03-16T14:22:38.570Z,1.83
2023-03-16T14:27:40.709Z,1.40
2023-03-16T14:32:40.053Z,1.30
2023-03-16T14:37:38.932Z,1.88
2023-03-16T14:42:40.286Z,1.80
2023-03-16T14:47:43.268Z,2.20
2023-03-16T14:52:42.385Z,2.90
2023-03-16T14:57:42.737Z,2.50
2023-03-16T15:02:44.743Z,1.98
2023-03-16T15:07:45.608Z,2.40
2023-03-16T15:12:50.720Z,2.50
2023-03-16T15:17:52.224Z,2.47
2023-03-16T15:22:53.008Z,2.70
2023-03-16T15:27:54.478Z,2.97
2023-03-16T15:32:53.276Z,3.53
2023-03-16T15:37:52.463Z,3.25
2023-03-16T15:42:51.731Z,3.25
2023-03-16T15:47:52.324Z,3.10
2023-03-16T15:52:59.442Z,2.83
2023-03-16T15:58:01.066Z,3.38
2023-03-16T16:03:01.430Z,3.08
2023-03-16T16:08:00.633Z,2.72
2023-03-16T16:13:00.231Z,3.03
2023-03-16T16:18:21.803Z,2.70
2023-03-16T16:23:19.289Z,2.50
2023-03-16T16:28:25.128Z,2.78
2023-03-16T16:33:44.312Z,3.28
2023-03-16T16:38:43.739Z,2.85
2023-03-16T16:43:47.804Z,2.85
2023-03-16T16:48:55.087Z,2.58
2023-03-16T16:53:56.979Z,2.72
2023-03-16T16:58:57.291Z,3.17
2023-03-16T17:03:56.617Z,3.10
2023-03-16T17:08:56.117Z,2.75
2023-03-16T17:13:57.163Z,3.05
2023-03-16T17:18:56.001Z,3.42
2023-03-16T17:23:55.232Z,3.03
2023-03-16T17:28:59.658Z,2.92
2023-03-16T17:33:58.559Z,3.10
2023-03-16T17:38:58.117Z,2.92
2023-03-16T17:44:02.727Z,3.13
2023-03-16T17:49:02.383Z,3.40
2023-03-16T17:54:01.480Z,3.65
2023-03-16T17:59:05.588Z,3.30
2023-03-16T18:04:15.980Z,3.60
2023-03-16T18:09:16.137Z,3.80
2023-03-16T18:14:27.090Z,4.13
2023-03-16T18:19:26.233Z,3.22
2023-03-16T18:24:26.861Z,3.33
2023-03-16T18:29:26.253Z,3.50
2023-03-16T18:34:32.538Z,3.50
2023-03-16T18:39:32.004Z,3.10
2023-03-16T18:44:31.922Z,3.33
2023-03-16T18:49:33.830Z,2.63
2023-03-16T18:54:38.302Z,3.50
2023-03-16T18:59:37.342Z,3.35
2023-03-16T19:04:36.221Z,3.40
2023-03-16T19:09:35.911Z,3.15
2023-03-16T19:14:35.359Z,3.25
2023-03-16T19:19:34.089Z,3.08
2023-03-16T19:24:51.510Z,3.45
2023-03-16T19:29:52.224Z,2.95
2023-03-16T19:34:51.280Z,2.58
2023-03-16T19:39:50.180Z,2.80
2023-03-16T19:44:50.698Z,2.72
2023-03-16T19:49:49.575Z,2.85
2023-03-16T19:54:48.555Z,3.08
2023-03-16T19:59:54.655Z,2.95
2023-03-16T20:04:54.814Z,3.75
2023-03-16T20:09:53.945Z,3.45
2023-03-16T20:14:53.793Z,2.65
2023-03-16T20:19:53.219Z,2.40
2023-03-16T20:24:54.384Z,2.63
2023-03-16T20:29:53.263Z,3.53
2023-03-16T20:34:53.676Z,3.22
2023-03-16T20:39:54.068Z,2.88
2023-03-16T20:44:53.086Z,3.22
2023-03-16T20:49:52.920Z,2.53
2023-03-16T20:54:52.578Z,2.83
2023-03-16T20:59:54.619Z,2.55
2023-03-16T21:04:58.010Z,2.85
2023-03-16T21:09:56.970Z,2.53
2023-03-16T21:14:56.212Z,3.03
2023-03-16T21:19:55.208Z,2.80
2023-03-16T21:24:55.358Z,2.03
2023-03-16T21:29:58.296Z,2.75
2023-03-16T21:34:57.725Z,2.63
2023-03-16T21:39:56.530Z,3.22
2023-03-16T21:44:55.330Z,3.10
2023-03-16T21:49:54.640Z,2.85
2023-03-16T21:54:54.297Z,3.08
2023-03-16T21:59:53.004Z,3.60
2023-03-16T22:04:52.361Z,2.97
2023-03-16T22:09:51.315Z,3.13
2023-03-16T22:14:50.119Z,3.30
2023-03-16T22:19:49.139Z,3.00
2023-03-16T22:24:48.172Z,4.55
2023-03-16T22:29:51.936Z,3.60
2023-03-16T22:34:53.688Z,3.78
2023-03-16T22:39:53.015Z,3.95
2023-03-16T22:44:51.823Z,3.88
2023-03-16T22:49:50.618Z,3.95
2023-03-16T22:54:49.505Z,3.55
2023-03-16T22:59:49.692Z,3.13
2023-03-16T23:04:48.440Z,3.60
2023-03-16T23:09:48.583Z,3.60
2023-03-16T23:14:47.767Z,3.25
2023-03-16T23:19:48.211Z,4.63
2023-03-16T23:24:47.342Z,3.78
2023-03-16T23:29:46.756Z,3.55
2023-03-16T23:34:46.059Z,3.47
2023-03-16T23:39:44.821Z,3.90
2023-03-16T23:44:44.019Z,3.50
2023-03-16T23:49:43.024Z,3.95
2023-03-16T23:54:41.979Z,3.88
2023-03-16T23:59:41.197Z,4.00
